sensor_id;sensor_type;location;lat;lon;timestamp;P1;durP1;ratioP1;P2;durP2;ratioP2
3341;SDS011;1684;50.748;6.154;2023-04-24T00:01:50;3.40;;;1.70;;
3341;SDS011;1684;50.748;6.154;2023-04-24T00:04:19;4.20;;;2.17;;
3341;SDS011;1684;50.748;6.154;2023-04-24T00:06:47;4.20;;;2.43;;
3341;SDS011;1684;50.748;6.154;2023-04-24T00:09:20;3.70;;;2.23;;
3341;SDS011;1684;50.748;6.154;2023-04-24T00:11:48;3.70;;;2.53;;
3341;SDS011;1684;50.748;6.154;2023-04-24T00:14:16;3.47;;;2.20;;
3341;SDS011;1684;50.748;6.154;2023-04-24T00:16:44;4.30;;;2.70;;
3341;SDS011;1684;50.748;6.154;2023-04-24T00:19:14;5.40;;;3.10;;
3341;SDS011;1684;50.748;6.154;2023-04-24T00:21:42;5.97;;;2.83;;
3341;SDS011;1684;50.748;6.154;2023-04-24T00:24:11;4.63;;;3.00;;
3341;SDS011;1684;50.748;6.154;2023-04-24T00:26:39;4.70;;;3.20;;
3341;SDS011;1684;50.748;6.154;2023-04-24T00:29:07;6.83;;;3.47;;
3341;SDS011;1684;50.748;6.154;2023-04-24T00:31:35;6.07;;;3.83;;
3341;SDS011;1684;50.748;6.154;2023-04-24T00:34:04;6.17;;;3.70;;
3341;SDS011;1684;50.748;6.154;2023-04-24T00:36:34;4.93;;;3.27;;
3341;SDS011;1684;50.748;6.154;2023-04-24T00:39:02;8.60;;;4.40;;
3341;SDS011;1684;50.748;6.154;2023-04-24T00:41:30;6.93;;;4.90;;
3341;SDS011;1684;50.748;6.154;2023-04-24T00:43:58;6.27;;;4.73;;
3341;SDS011;1684;50.748;6.154;2023-04-24T00:46:27;7.73;;;4.50;;
3341;SDS011;1684;50.748;6.154;2023-04-24T00:48:56;6.73;;;4.20;;
3341;SDS011;1684;50.748;6.154;2023-04-24T00:51:24;7.47;;;5.17;;
3341;SDS011;1684;50.748;6.154;2023-04-24T00:53:54;5.93;;;4.33;;
3341;SDS011;1684;50.748;6.154;2023-04-24T00:56:23;8.57;;;5.23;;
3341;SDS011;1684;50.748;6.154;2023-04-24T00:58:51;7.90;;;4.80;;
3341;SDS011;1684;50.748;6.154;2023-04-24T01:01:20;8.27;;;5.30;;
3341;SDS011;1684;50.748;6.154;2023-04-24T01:03:48;13.40;;;6.60;;
3341;SDS011;1684;50.748;6.154;2023-04-24T01:06:17;14.03;;;6.60;;
3341;SDS011;1684;50.748;6.154;2023-04-24T01:08:46;11.80;;;6.50;;
3341;SDS011;1684;50.748;6.154;2023-04-24T01:11:17;9.73;;;5.10;;
3341;SDS011;1684;50.748;6.154;2023-04-24T01:13:45;10.77;;;6.40;;
3341;SDS011;1684;50.748;6.154;2023-04-24T01:16:14;10.37;;;7.17;;
3341;SDS011;1684;50.748;6.154;2023-04-24T01:18:43;8.10;;;6.40;;
3341;SDS011;1684;50.748;6.154;2023-04-24T01:21:12;11.40;;;7.47;;
3341;SDS011;1684;50.748;6.154;2023-04-24T01:23:44;11.60;;;6.97;;
3341;SDS011;1684;50.748;6.154;2023-04-24T01:26:12;9.20;;;6.07;;
3341;SDS011;1684;50.748;6.154;2023-04-24T01:28:41;13.80;;;7.97;;
3341;SDS011;1684;50.748;6.154;2023-04-24T01:31:09;9.67;;;6.57;;
3341;SDS011;1684;50.748;6.154;2023-04-24T01:33:38;10.27;;;6.77;;
3341;SDS011;1684;50.748;6.154;2023-04-24T01:36:06;9.20;;;7.00;;
3341;SDS011;1684;50.748;6.154;2023-04-24T01:38:34;8.43;;;6.27;;
3341;SDS011;1684;50.748;6.154;2023-04-24T01:41:04;13.30;;;7.73;;
3341;SDS011;1684;50.748;6.154;2023-04-24T01:43:33;11.43;;;6.27;;
3341;SDS011;1684;50.748;6.154;2023-04-24T01:46:01;11.07;;;6.87;;
3341;SDS011;1684;50.748;6.154;2023-04-24T01:48:29;11.77;;;6.50;;
3341;SDS011;1684;50.748;6.154;2023-04-24T01:50:58;9.80;;;5.90;;
3341;SDS011;1684;50.748;6.154;2023-04-24T01:53:27;9.63;;;6.70;;
3341;SDS011;1684;50.748;6.154;2023-04-24T01:55:55;12.43;;;8.00;;
3341;SDS011;1684;50.748;6.154;2023-04-24T01:58:24;10.13;;;7.10;;
3341;SDS011;1684;50.748;6.154;2023-04-24T02:00:53;9.53;;;6.50;;
3341;SDS011;1684;50.748;6.154;2023-04-24T02:03:24;9.53;;;7.90;;
3341;SDS011;1684;50.748;6.154;2023-04-24T02:05:53;15.27;;;7.27;;
3341;SDS011;1684;50.748;6.154;2023-04-24T02:08:21;11.70;;;7.27;;
3341;SDS011;1684;50.748;6.154;2023-04-24T02:10:50;13.87;;;7.50;;
3341;SDS011;1684;50.748;6.154;2023-04-24T02:13:18;15.57;;;8.83;;
3341;SDS011;1684;50.748;6.154;2023-04-24T02:15:48;11.20;;;7.43;;
3341;SDS011;1684;50.748;6.154;2023-04-24T02:18:16;9.70;;;7.37;;
3341;SDS011;1684;50.748;6.154;2023-04-24T02:20:44;8.67;;;6.57;;
3341;SDS011;1684;50.748;6.154;2023-04-24T02:23:12;11.90;;;8.30;;
3341;SDS011;1684;50.748;6.154;2023-04-24T02:25:41;12.73;;;8.27;;
3341;SDS011;1684;50.748;6.154;2023-04-24T02:28:09;12.60;;;6.60;;
3341;SDS011;1684;50.748;6.154;2023-04-24T02:30:37;11.63;;;9.43;;
3341;SDS011;1684;50.748;6.154;2023-04-24T02:33:07;12.90;;;7.70;;
3341;SDS011;1684;50.748;6.154;2023-04-24T02:35:35;12.20;;;8.10;;
3341;SDS011;1684;50.748;6.154;2023-04-24T02:38:04;12.00;;;8.20;;
3341;SDS011;1684;50.748;6.154;2023-04-24T02:40:33;15.30;;;8.90;;
3341;SDS011;1684;50.748;6.154;2023-04-24T02:43:01;14.07;;;9.17;;
3341;SDS011;1684;50.748;6.154;2023-04-24T02:45:29;14.23;;;8.10;;
3341;SDS011;1684;50.748;6.154;2023-04-24T02:47:57;17.07;;;8.47;;
3341;SDS011;1684;50.748;6.154;2023-04-24T02:50:27;10.50;;;7.07;;
3341;SDS011;1684;50.748;6.154;2023-04-24T02:52:55;13.53;;;8.40;;
3341;SDS011;1684;50.748;6.154;2023-04-24T02:55:24;11.70;;;8.10;;
3341;SDS011;1684;50.748;6.154;2023-04-24T02:57:52;10.90;;;7.43;;
3341;SDS011;1684;50.748;6.154;2023-04-24T03:00:20;15.90;;;8.10;;
3341;SDS011;1684;50.748;6.154;2023-04-24T03:02:49;9.30;;;7.03;;
3341;SDS011;1684;50.748;6.154;2023-04-24T03:05:17;13.20;;;9.37;;
3341;SDS011;1684;50.748;6.154;2023-04-24T03:07:47;11.87;;;7.03;;
3341;SDS011;1684;50.748;6.154;2023-04-24T03:10:15;13.33;;;7.80;;
3341;SDS011;1684;50.748;6.154;2023-04-24T03:12:43;11.33;;;7.33;;
3341;SDS011;1684;50.748;6.154;2023-04-24T03:15:12;10.87;;;7.20;;
3341;SDS011;1684;50.748;6.154;2023-04-24T03:17:40;16.20;;;8.67;;
3341;SDS011;1684;50.748;6.154;2023-04-24T03:20:08;14.00;;;8.37;;
3341;SDS011;1684;50.748;6.154;2023-04-24T03:22:37;14.60;;;9.00;;
3341;SDS011;1684;50.748;6.154;2023-04-24T03:25:07;12.50;;;7.90;;
3341;SDS011;1684;50.748;6.154;2023-04-24T03:27:35;10.53;;;7.00;;
3341;SDS011;1684;50.748;6.154;2023-04-24T03:30:06;13.33;;;8.60;;
3341;SDS011;1684;50.748;6.154;2023-04-24T03:32:34;12.50;;;7.90;;
3341;SDS011;1684;50.748;6.154;2023-04-24T03:35:03;11.53;;;8.40;;
3341;SDS011;1684;50.748;6.154;2023-04-24T03:37:31;14.00;;;8.17;;
3341;SDS011;1684;50.748;6.154;2023-04-24T03:39:59;10.67;;;7.70;;
3341;SDS011;1684;50.748;6.154;2023-04-24T03:42:29;9.53;;;7.50;;
3341;SDS011;1684;50.748;6.154;2023-04-24T03:44:57;12.93;;;8.47;;
3341;SDS011;1684;50.748;6.154;2023-04-24T03:47:25;16.67;;;8.10;;
3341;SDS011;1684;50.748;6.154;2023-04-24T03:49:54;18.90;;;8.30;;
3341;SDS011;1684;50.748;6.154;2023-04-24T03:52:22;12.50;;;8.43;;
3341;SDS011;1684;50.748;6.154;2023-04-24T03:54:50;12.97;;;6.30;;
3341;SDS011;1684;50.748;6.154;2023-04-24T03:57:18;11.50;;;7.00;;
3341;SDS011;1684;50.748;6.154;2023-04-24T03:59:48;13.83;;;7.60;;
3341;SDS011;1684;50.748;6.154;2023-04-24T04:02:16;12.80;;;8.53;;
3341;SDS011;1684;50.748;6.154;2023-04-24T04:04:46;9.83;;;7.17;;
3341;SDS011;1684;50.748;6.154;2023-04-24T04:07:14;12.73;;;6.63;;
3341;SDS011;1684;50.748;6.154;2023-04-24T04:09:43;12.43;;;7.27;;
3341;SDS011;1684;50.748;6.154;2023-04-24T04:12:11;17.40;;;8.73;;
3341;SDS011;1684;50.748;6.154;2023-04-24T04:14:39;17.23;;;9.07;;
3341;SDS011;1684;50.748;6.154;2023-04-24T04:17:09;11.43;;;8.83;;
3341;SDS011;1684;50.748;6.154;2023-04-24T04:19:37;14.30;;;8.90;;
3341;SDS011;1684;50.748;6.154;2023-04-24T04:22:06;13.30;;;8.97;;
3341;SDS011;1684;50.748;6.154;2023-04-24T04:24:35;11.70;;;8.37;;
3341;SDS011;1684;50.748;6.154;2023-04-24T04:27:04;12.80;;;7.27;;
3341;SDS011;1684;50.748;6.154;2023-04-24T04:29:32;13.50;;;9.30;;
3341;SDS011;1684;50.748;6.154;2023-04-24T04:32:01;15.00;;;9.27;;
3341;SDS011;1684;50.748;6.154;2023-04-24T04:34:31;13.70;;;8.53;;
3341;SDS011;1684;50.748;6.154;2023-04-24T04:36:59;13.07;;;7.53;;
3341;SDS011;1684;50.748;6.154;2023-04-24T04:39:28;13.67;;;8.03;;
3341;SDS011;1684;50.748;6.154;2023-04-24T04:41:56;11.43;;;8.37;;
3341;SDS011;1684;50.748;6.154;2023-04-24T04:44:26;16.43;;;9.47;;
3341;SDS011;1684;50.748;6.154;2023-04-24T04:46:55;14.90;;;8.37;;
3341;SDS011;1684;50.748;6.154;2023-04-24T04:49:24;12.93;;;8.30;;
3341;SDS011;1684;50.748;6.154;2023-04-24T04:51:56;14.23;;;8.80;;
3341;SDS011;1684;50.748;6.154;2023-04-24T04:54:24;15.97;;;9.27;;
3341;SDS011;1684;50.748;6.154;2023-04-24T04:56:52;9.70;;;6.50;;
3341;SDS011;1684;50.748;6.154;2023-04-24T04:59:20;10.70;;;7.63;;
3341;SDS011;1684;50.748;6.154;2023-04-24T05:01:49;13.50;;;7.90;;
3341;SDS011;1684;50.748;6.154;2023-04-24T05:04:17;11.57;;;7.37;;
3341;SDS011;1684;50.748;6.154;2023-04-24T05:06:46;14.57;;;8.53;;
3341;SDS011;1684;50.748;6.154;2023-04-24T05:09:15;11.50;;;8.13;;
3341;SDS011;1684;50.748;6.154;2023-04-24T05:11:44;14.43;;;7.70;;
3341;SDS011;1684;50.748;6.154;2023-04-24T05:14:12;11.27;;;7.37;;
3341;SDS011;1684;50.748;6.154;2023-04-24T05:16:40;10.43;;;7.60;;
3341;SDS011;1684;50.748;6.154;2023-04-24T05:19:09;9.93;;;7.00;;
3341;SDS011;1684;50.748;6.154;2023-04-24T05:21:38;12.97;;;6.60;;
3341;SDS011;1684;50.748;6.154;2023-04-24T05:24:06;11.60;;;7.83;;
3341;SDS011;1684;50.748;6.154;2023-04-24T05:26:36;10.87;;;6.77;;
3341;SDS011;1684;50.748;6.154;2023-04-24T05:29:04;11.07;;;7.23;;
3341;SDS011;1684;50.748;6.154;2023-04-24T05:31:33;11.73;;;6.97;;
3341;SDS011;1684;50.748;6.154;2023-04-24T05:34:01;9.00;;;6.63;;
3341;SDS011;1684;50.748;6.154;2023-04-24T05:36:29;13.13;;;7.20;;
3341;SDS011;1684;50.748;6.154;2023-04-24T05:38:58;7.63;;;5.10;;
3341;SDS011;1684;50.748;6.154;2023-04-24T05:41:26;9.53;;;5.50;;
3341;SDS011;1684;50.748;6.154;2023-04-24T05:43:55;8.60;;;5.47;;
3341;SDS011;1684;50.748;6.154;2023-04-24T05:46:24;9.63;;;6.23;;
3341;SDS011;1684;50.748;6.154;2023-04-24T05:48:52;10.40;;;5.80;;
3341;SDS011;1684;50.748;6.154;2023-04-24T05:51:21;8.93;;;5.30;;
3341;SDS011;1684;50.748;6.154;2023-04-24T05:53:49;10.57;;;5.70;;
3341;SDS011;1684;50.748;6.154;2023-04-24T05:56:17;6.40;;;4.83;;
3341;SDS011;1684;50.748;6.154;2023-04-24T05:58:46;8.40;;;4.80;;
3341;SDS011;1684;50.748;6.154;2023-04-24T06:01:16;9.80;;;5.60;;
3341;SDS011;1684;50.748;6.154;2023-04-24T06:03:44;11.67;;;6.70;;
3341;SDS011;1684;50.748;6.154;2023-04-24T06:06:12;8.37;;;5.47;;
3341;SDS011;1684;50.748;6.154;2023-04-24T06:08:41;11.13;;;5.80;;
3341;SDS011;1684;50.748;6.154;2023-04-24T06:11:10;9.67;;;5.70;;
3341;SDS011;1684;50.748;6.154;2023-04-24T06:13:38;7.97;;;5.20;;
3341;SDS011;1684;50.748;6.154;2023-04-24T06:16:07;9.30;;;5.30;;
3341;SDS011;1684;50.748;6.154;2023-04-24T06:18:37;7.07;;;5.10;;
3341;SDS011;1684;50.748;6.154;2023-04-24T06:21:05;6.67;;;4.60;;
3341;SDS011;1684;50.748;6.154;2023-04-24T06:23:33;7.47;;;5.57;;
3341;SDS011;1684;50.748;6.154;2023-04-24T06:26:01;8.90;;;5.77;;
3341;SDS011;1684;50.748;6.154;2023-04-24T06:28:29;9.67;;;4.43;;
3341;SDS011;1684;50.748;6.154;2023-04-24T06:30:58;6.00;;;4.07;;
3341;SDS011;1684;50.748;6.154;2023-04-24T06:33:26;5.90;;;3.70;;
3341;SDS011;1684;50.748;6.154;2023-04-24T06:35:55;5.77;;;3.73;;
3341;SDS011;1684;50.748;6.154;2023-04-24T06:38:24;5.80;;;3.90;;
3341;SDS011;1684;50.748;6.154;2023-04-24T06:40:52;5.10;;;3.90;;
3341;SDS011;1684;50.748;6.154;2023-04-24T06:43:20;6.37;;;3.87;;
3341;SDS011;1684;50.748;6.154;2023-04-24T06:45:48;5.23;;;3.60;;
3341;SDS011;1684;50.748;6.154;2023-04-24T06:48:17;4.93;;;2.93;;
3341;SDS011;1684;50.748;6.154;2023-04-24T06:50:45;4.63;;;3.10;;
3341;SDS011;1684;50.748;6.154;2023-04-24T06:53:15;5.57;;;3.60;;
3341;SDS011;1684;50.748;6.154;2023-04-24T06:55:43;4.00;;;2.50;;
3341;SDS011;1684;50.748;6.154;2023-04-24T06:58:12;5.03;;;3.00;;
3341;SDS011;1684;50.748;6.154;2023-04-24T07:00:41;5.70;;;3.60;;
3341;SDS011;1684;50.748;6.154;2023-04-24T07:03:09;5.03;;;2.90;;
3341;SDS011;1684;50.748;6.154;2023-04-24T07:05:38;8.60;;;3.20;;
3341;SDS011;1684;50.748;6.154;2023-04-24T07:08:06;4.40;;;2.80;;
3341;SDS011;1684;50.748;6.154;2023-04-24T07:10:36;4.20;;;2.80;;
3341;SDS011;1684;50.748;6.154;2023-04-24T07:13:04;4.90;;;3.00;;
3341;SDS011;1684;50.748;6.154;2023-04-24T07:15:33;5.23;;;3.40;;
3341;SDS011;1684;50.748;6.154;2023-04-24T07:18:01;6.67;;;4.03;;
3341;SDS011;1684;50.748;6.154;2023-04-24T07:20:31;5.20;;;3.00;;
3341;SDS011;1684;50.748;6.154;2023-04-24T07:23:00;4.47;;;2.77;;
3341;SDS011;1684;50.748;6.154;2023-04-24T07:25:28;6.30;;;4.20;;
3341;SDS011;1684;50.748;6.154;2023-04-24T07:27:58;5.27;;;3.10;;
3341;SDS011;1684;50.748;6.154;2023-04-24T07:30:27;7.53;;;3.27;;
3341;SDS011;1684;50.748;6.154;2023-04-24T07:32:55;4.77;;;3.33;;
3341;SDS011;1684;50.748;6.154;2023-04-24T07:35:24;6.60;;;4.23;;
3341;SDS011;1684;50.748;6.154;2023-04-24T07:37:52;5.43;;;3.50;;
3341;SDS011;1684;50.748;6.154;2023-04-24T07:40:21;5.50;;;3.60;;
3341;SDS011;1684;50.748;6.154;2023-04-24T07:42:50;5.13;;;3.90;;
3341;SDS011;1684;50.748;6.154;2023-04-24T07:45:19;5.03;;;3.60;;
3341;SDS011;1684;50.748;6.154;2023-04-24T07:47:49;6.97;;;3.97;;
3341;SDS011;1684;50.748;6.154;2023-04-24T07:50:18;6.30;;;4.30;;
3341;SDS011;1684;50.748;6.154;2023-04-24T07:52:46;8.50;;;4.90;;
3341;SDS011;1684;50.748;6.154;2023-04-24T07:55:14;7.73;;;4.70;;
3341;SDS011;1684;50.748;6.154;2023-04-24T07:57:43;7.13;;;5.67;;
3341;SDS011;1684;50.748;6.154;2023-04-24T08:00:11;6.97;;;4.27;;
3341;SDS011;1684;50.748;6.154;2023-04-24T08:02:41;10.00;;;5.73;;
3341;SDS011;1684;50.748;6.154;2023-04-24T08:05:10;9.10;;;4.93;;
3341;SDS011;1684;50.748;6.154;2023-04-24T08:07:38;11.20;;;5.83;;
3341;SDS011;1684;50.748;6.154;2023-04-24T08:10:09;7.70;;;4.67;;
3341;SDS011;1684;50.748;6.154;2023-04-24T08:12:37;8.63;;;4.97;;
3341;SDS011;1684;50.748;6.154;2023-04-24T08:15:08;9.87;;;5.10;;
3341;SDS011;1684;50.748;6.154;2023-04-24T08:17:36;9.90;;;5.97;;
3341;SDS011;1684;50.748;6.154;2023-04-24T08:20:06;8.90;;;5.13;;
3341;SDS011;1684;50.748;6.154;2023-04-24T08:22:39;10.33;;;5.73;;
3341;SDS011;1684;50.748;6.154;2023-04-24T08:25:08;10.17;;;5.67;;
3341;SDS011;1684;50.748;6.154;2023-04-24T08:27:36;15.77;;;6.70;;
3341;SDS011;1684;50.748;6.154;2023-04-24T08:30:06;11.47;;;4.77;;
3341;SDS011;1684;50.748;6.154;2023-04-24T08:32:34;10.30;;;4.97;;
3341;SDS011;1684;50.748;6.154;2023-04-24T08:35:03;5.73;;;3.30;;
3341;SDS011;1684;50.748;6.154;2023-04-24T08:37:32;6.20;;;3.87;;
3341;SDS011;1684;50.748;6.154;2023-04-24T08:40:01;5.10;;;3.90;;
3341;SDS011;1684;50.748;6.154;2023-04-24T08:42:29;6.83;;;4.20;;
3341;SDS011;1684;50.748;6.154;2023-04-24T08:44:59;6.93;;;4.33;;
3341;SDS011;1684;50.748;6.154;2023-04-24T08:47:28;7.20;;;4.37;;
3341;SDS011;1684;50.748;6.154;2023-04-24T08:49:57;7.67;;;4.50;;
3341;SDS011;1684;50.748;6.154;2023-04-24T08:52:28;6.07;;;3.77;;
3341;SDS011;1684;50.748;6.154;2023-04-24T08:54:58;8.40;;;4.67;;
3341;SDS011;1684;50.748;6.154;2023-04-24T08:57:27;7.93;;;3.37;;
3341;SDS011;1684;50.748;6.154;2023-04-24T08:59:57;8.07;;;5.23;;
3341;SDS011;1684;50.748;6.154;2023-04-24T09:02:26;10.80;;;7.13;;
3341;SDS011;1684;50.748;6.154;2023-04-24T09:04:54;13.30;;;6.63;;
3341;SDS011;1684;50.748;6.154;2023-04-24T09:07:24;9.17;;;5.57;;
3341;SDS011;1684;50.748;6.154;2023-04-24T09:09:52;14.50;;;8.40;;
3341;SDS011;1684;50.748;6.154;2023-04-24T09:12:22;12.57;;;7.87;;
3341;SDS011;1684;50.748;6.154;2023-04-24T09:14:50;12.53;;;5.13;;
3341;SDS011;1684;50.748;6.154;2023-04-24T09:17:19;14.27;;;8.37;;
3341;SDS011;1684;50.748;6.154;2023-04-24T09:19:49;17.00;;;8.53;;
3341;SDS011;1684;50.748;6.154;2023-04-24T09:22:17;11.03;;;7.17;;
3341;SDS011;1684;50.748;6.154;2023-04-24T09:24:46;11.23;;;7.90;;
3341;SDS011;1684;50.748;6.154;2023-04-24T09:27:14;12.33;;;7.30;;
3341;SDS011;1684;50.748;6.154;2023-04-24T09:29:54;11.00;;;5.83;;
3341;SDS011;1684;50.748;6.154;2023-04-24T09:32:23;19.00;;;8.83;;
3341;SDS011;1684;50.748;6.154;2023-04-24T09:35:04;12.27;;;9.03;;
3341;SDS011;1684;50.748;6.154;2023-04-24T09:37:35;14.43;;;8.57;;
3341;SDS011;1684;50.748;6.154;2023-04-24T09:40:15;17.60;;;10.13;;
3341;SDS011;1684;50.748;6.154;2023-04-24T09:42:45;18.07;;;9.37;;
3341;SDS011;1684;50.748;6.154;2023-04-24T09:45:14;14.40;;;8.00;;
3341;SDS011;1684;50.748;6.154;2023-04-24T09:47:43;12.73;;;8.60;;
3341;SDS011;1684;50.748;6.154;2023-04-24T09:50:13;14.87;;;9.40;;
3341;SDS011;1684;50.748;6.154;2023-04-24T09:52:43;14.03;;;7.63;;
3341;SDS011;1684;50.748;6.154;2023-04-24T09:55:15;14.47;;;8.97;;
3341;SDS011;1684;50.748;6.154;2023-04-24T09:57:48;13.37;;;9.00;;
3341;SDS011;1684;50.748;6.154;2023-04-24T10:00:24;17.33;;;8.40;;
3341;SDS011;1684;50.748;6.154;2023-04-24T10:02:56;11.90;;;7.30;;
3341;SDS011;1684;50.748;6.154;2023-04-24T10:05:28;14.03;;;8.47;;
3341;SDS011;1684;50.748;6.154;2023-04-24T10:07:58;13.90;;;5.93;;
3341;SDS011;1684;50.748;6.154;2023-04-24T10:10:26;17.83;;;7.60;;
3341;SDS011;1684;50.748;6.154;2023-04-24T10:12:54;17.73;;;7.93;;
3341;SDS011;1684;50.748;6.154;2023-04-24T10:15:24;13.30;;;7.80;;
3341;SDS011;1684;50.748;6.154;2023-04-24T10:17:53;16.03;;;8.60;;
3341;SDS011;1684;50.748;6.154;2023-04-24T10:20:22;13.07;;;7.90;;
3341;SDS011;1684;50.748;6.154;2023-04-24T10:22:52;15.40;;;7.53;;
3341;SDS011;1684;50.748;6.154;2023-04-24T10:25:21;14.13;;;8.63;;
3341;SDS011;1684;50.748;6.154;2023-04-24T10:27:50;20.53;;;11.47;;
3341;SDS011;1684;50.748;6.154;2023-04-24T10:30:19;16.70;;;8.57;;
3341;SDS011;1684;50.748;6.154;2023-04-24T10:32:48;21.37;;;10.03;;
3341;SDS011;1684;50.748;6.154;2023-04-24T10:35:17;16.17;;;7.93;;
3341;SDS011;1684;50.748;6.154;2023-04-24T10:37:48;14.43;;;8.53;;
3341;SDS011;1684;50.748;6.154;2023-04-24T10:40:18;18.43;;;9.23;;
3341;SDS011;1684;50.748;6.154;2023-04-24T10:42:47;15.07;;;9.83;;
3341;SDS011;1684;50.748;6.154;2023-04-24T10:45:16;17.13;;;10.30;;
3341;SDS011;1684;50.748;6.154;2023-04-24T10:47:52;21.23;;;11.00;;
3341;SDS011;1684;50.748;6.154;2023-04-24T10:50:20;18.13;;;9.10;;
3341;SDS011;1684;50.748;6.154;2023-04-24T10:52:49;18.90;;;10.97;;
3341;SDS011;1684;50.748;6.154;2023-04-24T10:58:02;19.00;;;10.40;;
3341;SDS011;1684;50.748;6.154;2023-04-24T11:00:30;17.70;;;10.30;;
3341;SDS011;1684;50.748;6.154;2023-04-24T11:03:00;15.10;;;10.43;;
3341;SDS011;1684;50.748;6.154;2023-04-24T11:08:21;12.30;;;8.13;;
3341;SDS011;1684;50.748;6.154;2023-04-24T11:10:54;14.23;;;7.33;;
3341;SDS011;1684;50.748;6.154;2023-04-24T11:13:23;16.90;;;8.43;;
3341;SDS011;1684;50.748;6.154;2023-04-24T11:18:40;16.53;;;9.50;;
3341;SDS011;1684;50.748;6.154;2023-04-24T11:21:11;17.30;;;9.60;;
3341;SDS011;1684;50.748;6.154;2023-04-24T11:23:40;14.90;;;8.87;;
3341;SDS011;1684;50.748;6.154;2023-04-24T11:26:11;15.80;;;9.90;;
3341;SDS011;1684;50.748;6.154;2023-04-24T11:28:49;14.03;;;8.77;;
3341;SDS011;1684;50.748;6.154;2023-04-24T11:31:37;15.77;;;10.13;;
3341;SDS011;1684;50.748;6.154;2023-04-24T11:34:08;18.00;;;9.00;;
3341;SDS011;1684;50.748;6.154;2023-04-24T11:36:36;12.07;;;7.90;;
3341;SDS011;1684;50.748;6.154;2023-04-24T11:39:05;15.53;;;7.93;;
3341;SDS011;1684;50.748;6.154;2023-04-24T11:41:33;15.27;;;7.90;;
3341;SDS011;1684;50.748;6.154;2023-04-24T11:44:02;15.00;;;7.80;;
3341;SDS011;1684;50.748;6.154;2023-04-24T11:46:31;12.10;;;7.13;;
3341;SDS011;1684;50.748;6.154;2023-04-24T11:48:59;15.83;;;7.03;;
3341;SDS011;1684;50.748;6.154;2023-04-24T11:51:29;12.20;;;6.17;;
3341;SDS011;1684;50.748;6.154;2023-04-24T11:54:16;15.63;;;7.20;;
3341;SDS011;1684;50.748;6.154;2023-04-24T11:56:44;14.67;;;6.97;;
3341;SDS011;1684;50.748;6.154;2023-04-24T11:59:12;12.13;;;5.63;;
3341;SDS011;1684;50.748;6.154;2023-04-24T12:01:44;15.00;;;6.17;;
3341;SDS011;1684;50.748;6.154;2023-04-24T12:04:12;15.43;;;6.43;;
3341;SDS011;1684;50.748;6.154;2023-04-24T12:09:26;12.60;;;6.43;;
3341;SDS011;1684;50.748;6.154;2023-04-24T12:11:54;16.03;;;8.57;;
3341;SDS011;1684;50.748;6.154;2023-04-24T12:14:24;11.53;;;7.03;;
3341;SDS011;1684;50.748;6.154;2023-04-24T12:16:52;11.53;;;7.07;;
3341;SDS011;1684;50.748;6.154;2023-04-24T12:19:20;13.37;;;8.07;;
3341;SDS011;1684;50.748;6.154;2023-04-24T12:21:59;16.77;;;7.00;;
3341;SDS011;1684;50.748;6.154;2023-04-24T12:24:28;15.80;;;6.73;;
3341;SDS011;1684;50.748;6.154;2023-04-24T12:26:57;10.47;;;5.27;;
3341;SDS011;1684;50.748;6.154;2023-04-24T12:29:27;15.03;;;7.70;;
3341;SDS011;1684;50.748;6.154;2023-04-24T12:31:56;16.30;;;7.50;;
3341;SDS011;1684;50.748;6.154;2023-04-24T12:34:24;15.63;;;6.87;;
3341;SDS011;1684;50.748;6.154;2023-04-24T12:36:53;12.83;;;6.20;;
3341;SDS011;1684;50.748;6.154;2023-04-24T12:39:21;15.20;;;7.30;;
3341;SDS011;1684;50.748;6.154;2023-04-24T12:41:57;17.60;;;7.93;;
3341;SDS011;1684;50.748;6.154;2023-04-24T12:44:29;13.97;;;7.13;;
3341;SDS011;1684;50.748;6.154;2023-04-24T12:46:57;11.40;;;6.17;;
3341;SDS011;1684;50.748;6.154;2023-04-24T12:49:26;9.57;;;5.60;;
3341;SDS011;1684;50.748;6.154;2023-04-24T12:51:54;10.43;;;5.07;;
3341;SDS011;1684;50.748;6.154;2023-04-24T12:54:23;8.50;;;5.63;;
3341;SDS011;1684;50.748;6.154;2023-04-24T12:56:51;9.67;;;5.90;;
3341;SDS011;1684;50.748;6.154;2023-04-24T12:59:20;13.70;;;7.57;;
3341;SDS011;1684;50.748;6.154;2023-04-24T13:01:49;10.50;;;6.53;;
3341;SDS011;1684;50.748;6.154;2023-04-24T13:04:18;10.30;;;5.90;;
3341;SDS011;1684;50.748;6.154;2023-04-24T13:06:46;6.50;;;3.87;;
3341;SDS011;1684;50.748;6.154;2023-04-24T13:09:15;12.53;;;5.10;;
3341;SDS011;1684;50.748;6.154;2023-04-24T13:11:43;11.47;;;6.37;;
3341;SDS011;1684;50.748;6.154;2023-04-24T13:14:11;8.43;;;4.80;;
3341;SDS011;1684;50.748;6.154;2023-04-24T13:16:41;9.07;;;5.53;;
3341;SDS011;1684;50.748;6.154;2023-04-24T13:19:10;11.23;;;5.80;;
3341;SDS011;1684;50.748;6.154;2023-04-24T13:21:38;10.77;;;5.20;;
3341;SDS011;1684;50.748;6.154;2023-04-24T13:24:06;9.67;;;5.40;;
3341;SDS011;1684;50.748;6.154;2023-04-24T13:26:35;8.90;;;5.53;;
3341;SDS011;1684;50.748;6.154;2023-04-24T13:29:03;9.10;;;5.67;;
3341;SDS011;1684;50.748;6.154;2023-04-24T13:31:31;12.00;;;6.70;;
3341;SDS011;1684;50.748;6.154;2023-04-24T13:34:01;8.63;;;5.37;;
3341;SDS011;1684;50.748;6.154;2023-04-24T13:36:30;11.40;;;5.60;;
3341;SDS011;1684;50.748;6.154;2023-04-24T13:38:59;8.50;;;5.70;;
3341;SDS011;1684;50.748;6.154;2023-04-24T13:41:27;8.70;;;5.00;;
3341;SDS011;1684;50.748;6.154;2023-04-24T13:43:55;10.37;;;6.27;;
3341;SDS011;1684;50.748;6.154;2023-04-24T13:46:23;9.23;;;4.93;;
3341;SDS011;1684;50.748;6.154;2023-04-24T13:48:52;7.47;;;5.47;;
3341;SDS011;1684;50.748;6.154;2023-04-24T13:51:21;12.50;;;5.00;;
3341;SDS011;1684;50.748;6.154;2023-04-24T13:53:50;7.83;;;3.23;;
3341;SDS011;1684;50.748;6.154;2023-04-24T13:56:18;10.20;;;5.33;;
3341;SDS011;1684;50.748;6.154;2023-04-24T13:58:46;16.47;;;6.97;;
3341;SDS011;1684;50.748;6.154;2023-04-24T14:01:15;13.60;;;6.30;;
3341;SDS011;1684;50.748;6.154;2023-04-24T14:03:43;7.80;;;4.40;;
3341;SDS011;1684;50.748;6.154;2023-04-24T14:06:12;9.57;;;6.00;;
3341;SDS011;1684;50.748;6.154;2023-04-24T14:08:42;12.80;;;6.03;;
3341;SDS011;1684;50.748;6.154;2023-04-24T14:11:10;13.07;;;7.60;;
3341;SDS011;1684;50.748;6.154;2023-04-24T14:13:39;14.70;;;8.17;;
3341;SDS011;1684;50.748;6.154;2023-04-24T14:16:09;12.57;;;6.47;;
3341;SDS011;1684;50.748;6.154;2023-04-24T14:18:37;10.90;;;8.10;;
3341;SDS011;1684;50.748;6.154;2023-04-24T14:21:06;10.80;;;5.43;;
3341;SDS011;1684;50.748;6.154;2023-04-24T14:23:34;13.23;;;6.67;;
3341;SDS011;1684;50.748;6.154;2023-04-24T14:26:04;13.70;;;5.67;;
3341;SDS011;1684;50.748;6.154;2023-04-24T14:28:32;7.30;;;5.77;;
3341;SDS011;1684;50.748;6.154;2023-04-24T14:31:00;9.40;;;6.10;;
3341;SDS011;1684;50.748;6.154;2023-04-24T14:33:29;11.63;;;5.87;;
3341;SDS011;1684;50.748;6.154;2023-04-24T14:35:57;12.87;;;7.77;;
3341;SDS011;1684;50.748;6.154;2023-04-24T14:38:26;11.43;;;7.57;;
3341;SDS011;1684;50.748;6.154;2023-04-24T14:40:54;16.37;;;7.33;;
3341;SDS011;1684;50.748;6.154;2023-04-24T14:43:26;9.30;;;6.20;;
3341;SDS011;1684;50.748;6.154;2023-04-24T14:45:55;9.17;;;4.87;;
3341;SDS011;1684;50.748;6.154;2023-04-24T14:48:23;8.87;;;6.80;;
3341;SDS011;1684;50.748;6.154;2023-04-24T14:50:51;12.90;;;6.37;;
3341;SDS011;1684;50.748;6.154;2023-04-24T14:53:20;13.33;;;5.13;;
3341;SDS011;1684;50.748;6.154;2023-04-24T14:55:48;10.10;;;6.17;;
3341;SDS011;1684;50.748;6.154;2023-04-24T14:58:17;8.83;;;5.43;;
3341;SDS011;1684;50.748;6.154;2023-04-24T15:00:46;8.10;;;5.50;;
3341;SDS011;1684;50.748;6.154;2023-04-24T15:03:16;10.53;;;5.33;;
3341;SDS011;1684;50.748;6.154;2023-04-24T15:05:44;7.77;;;6.23;;
3341;SDS011;1684;50.748;6.154;2023-04-24T15:08:13;7.47;;;4.97;;
3341;SDS011;1684;50.748;6.154;2023-04-24T15:10:41;11.60;;;5.80;;
3341;SDS011;1684;50.748;6.154;2023-04-24T15:13:10;7.70;;;5.10;;
3341;SDS011;1684;50.748;6.154;2023-04-24T15:15:39;11.03;;;5.40;;
3341;SDS011;1684;50.748;6.154;2023-04-24T15:18:09;9.47;;;5.90;;
3341;SDS011;1684;50.748;6.154;2023-04-24T15:20:38;13.60;;;6.70;;
3341;SDS011;1684;50.748;6.154;2023-04-24T15:23:07;9.07;;;4.43;;
3341;SDS011;1684;50.748;6.154;2023-04-24T15:25:36;14.30;;;6.80;;
3341;SDS011;1684;50.748;6.154;2023-04-24T15:28:04;7.70;;;5.00;;
3341;SDS011;1684;50.748;6.154;2023-04-24T15:30:33;3.43;;;1.70;;